createdAt,value
2023-05-21T00:00:58.313Z,0
2023-05-21T00:03:56.668Z,0
2023-05-21T00:06:57.167Z,0
2023-05-21T00:09:57.595Z,0
2023-05-21T00:12:57.130Z,1.3333333333333333
2023-05-21T00:15:56.770Z,0
2023-05-21T00:18:57.229Z,0
2023-05-21T00:21:56.768Z,0.3333333333333333
2023-05-21T00:24:57.334Z,0
2023-05-21T00:27:56.843Z,0
2023-05-21T00:30:58.225Z,0
2023-05-21T00:33:57.244Z,0
2023-05-21T00:36:59.384Z,0
2023-05-21T00:39:58.270Z,0
2023-05-21T00:42:57.014Z,0
2023-05-21T00:45:57.754Z,0
2023-05-21T00:48:57.152Z,0
2023-05-21T00:51:57.942Z,0
2023-05-21T00:54:57.677Z,1
2023-05-21T00:57:57.713Z,0.3333333333333333
2023-05-21T01:00:57.459Z,0
2023-05-21T01:03:57.418Z,0
2023-05-21T01:06:57.364Z,0
2023-05-21T01:09:57.243Z,0
2023-05-21T01:12:56.895Z,0.3333333333333333
2023-05-21T01:15:57.461Z,0.3333333333333333
2023-05-21T01:18:57.166Z,0.3333333333333333
2023-05-21T01:21:56.887Z,0
2023-05-21T01:24:56.779Z,0
2023-05-21T01:27:56.963Z,0
2023-05-21T01:30:57.253Z,0.3333333333333333
2023-05-21T01:33:57.637Z,0
2023-05-21T01:36:56.702Z,0
2023-05-21T01:39:57.360Z,0
2023-05-21T01:42:56.619Z,1
2023-05-21T01:45:57.845Z,0
2023-05-21T01:48:57.712Z,0
2023-05-21T01:51:57.015Z,0
2023-05-21T01:54:57.326Z,0.6666666666666666
2023-05-21T01:57:57.812Z,0
2023-05-21T02:00:58.213Z,0
2023-05-21T02:03:57.549Z,0
2023-05-21T02:06:57.102Z,0
2023-05-21T02:09:57.746Z,0
2023-05-21T02:12:57.643Z,0
2023-05-21T02:15:57.524Z,1.6666666666666667
2023-05-21T02:18:57.744Z,0
2023-05-21T02:21:56.720Z,1.6666666666666667
2023-05-21T02:24:57.643Z,0.6666666666666666
2023-05-21T02:27:57.190Z,0
2023-05-21T02:30:57.237Z,0
2023-05-21T02:33:57.380Z,0
2023-05-21T02:36:57.014Z,0
2023-05-21T02:39:58.105Z,0
2023-05-21T02:42:57.321Z,0
2023-05-21T02:45:58.084Z,0
2023-05-21T02:48:57.917Z,1.3333333333333333
2023-05-21T02:51:57.828Z,0.3333333333333333
2023-05-21T02:54:57.539Z,0
2023-05-21T02:57:56.672Z,0
2023-05-21T03:00:57.777Z,0
2023-05-21T03:03:56.917Z,2
2023-05-21T03:06:57.292Z,0
2023-05-21T03:09:57.084Z,0.6666666666666666
2023-05-21T03:12:57.499Z,0.3333333333333333
2023-05-21T03:15:58.146Z,0.6666666666666666
2023-05-21T03:18:57.712Z,1
2023-05-21T03:21:57.137Z,2
2023-05-21T03:24:57.285Z,1.6666666666666667
2023-05-21T03:27:57.518Z,3
2023-05-21T03:30:56.905Z,1.6666666666666667
2023-05-21T03:33:57.548Z,4.666666666666667
2023-05-21T03:36:57.271Z,6
2023-05-21T03:39:57.305Z,7.666666666666667
2023-05-21T03:42:57.423Z,10.666666666666666
2023-05-21T03:45:57.295Z,13.666666666666666
2023-05-21T03:48:56.802Z,18.333333333333332
2023-05-21T03:51:57.067Z,21.666666666666668
2023-05-21T03:54:57.245Z,26
2023-05-21T03:57:57.631Z,32
2023-05-21T04:00:57.048Z,36
2023-05-21T04:03:57.421Z,43
2023-05-21T04:06:56.925Z,50.666666666666664
2023-05-21T04:09:56.909Z,57
2023-05-21T04:12:57.277Z,68
2023-05-21T04:15:57.370Z,76.33333333333333
2023-05-21T04:18:57.948Z,86.66666666666667
2023-05-21T04:21:57.140Z,97.33333333333333
2023-05-21T04:24:57.663Z,108.33333333333333
2023-05-21T04:27:57.239Z,120.66666666666667
2023-05-21T04:30:57.811Z,132.33333333333334
2023-05-21T04:33:57.480Z,147
2023-05-21T04:36:56.667Z,161
2023-05-21T04:39:57.171Z,177
2023-05-21T04:42:57.293Z,195.66666666666666
2023-05-21T04:45:57.652Z,212.33333333333334
2023-05-21T04:48:57.141Z,230
2023-05-21T04:51:57.893Z,248
2023-05-21T04:54:57.672Z,267
2023-05-21T04:57:56.783Z,285
2023-05-21T05:00:57.699Z,303
2023-05-21T05:03:57.159Z,321
2023-05-21T05:06:57.096Z,337
2023-05-21T05:09:57.831Z,354
2023-05-21T05:12:57.142Z,370.3333333333333
2023-05-21T05:15:57.914Z,386.6666666666667
2023-05-21T05:18:57.144Z,403
2023-05-21T05:21:57.157Z,420
2023-05-21T05:24:56.994Z,437.3333333333333
2023-05-21T05:27:57.409Z,455
2023-05-21T05:30:57.153Z,472.3333333333333
2023-05-21T05:33:57.149Z,490.3333333333333
2023-05-21T05:36:57.774Z,510.3333333333333
2023-05-21T05:39:57.812Z,533
2023-05-21T05:42:57.085Z,554
2023-05-21T05:45:57.290Z,577.3333333333334
2023-05-21T05:48:57.781Z,601.6666666666666
2023-05-21T05:51:57.479Z,622.6666666666666
2023-05-21T05:54:57.466Z,641.3333333333334
2023-05-21T05:57:57.089Z,659.3333333333334
2023-05-21T06:00:57.877Z,679.6666666666666
2023-05-21T06:03:57.722Z,701.3333333333334
2023-05-21T06:06:57.461Z,724.6666666666666
2023-05-21T06:09:57.843Z,749.3333333333334
2023-05-21T06:12:57.370Z,779
2023-05-21T06:15:58.235Z,805.6666666666666
2023-05-21T06:18:57.902Z,834.6666666666666
2023-05-21T06:21:57.505Z,863.6666666666666
2023-05-21T06:24:57.228Z,887.6666666666666
2023-05-21T06:27:57.377Z,908
2023-05-21T06:30:57.845Z,920
2023-05-21T06:33:57.312Z,926
2023-05-21T06:36:57.095Z,931.3333333333334
2023-05-21T06:39:56.984Z,934.6666666666666
2023-05-21T06:42:56.805Z,937.6666666666666
2023-05-21T06:45:57.922Z,942
2023-05-21T06:48:57.685Z,944.3333333333334
2023-05-21T06:51:57.040Z,946.6666666666666
2023-05-21T06:54:57.776Z,950.3333333333334
2023-05-21T06:57:57.824Z,953
2023-05-21T07:00:57.733Z,954
2023-05-21T07:03:57.178Z,952.6666666666666
2023-05-21T07:06:57.992Z,953.3333333333334
2023-05-21T07:09:57.166Z,954
2023-05-21T07:12:57.823Z,954.3333333333334
2023-05-21T07:15:57.337Z,956
2023-05-21T07:18:57.737Z,956
2023-05-21T07:21:57.182Z,956
2023-05-21T07:24:57.213Z,955
2023-05-21T07:27:57.604Z,954.6666666666666
2023-05-21T07:30:57.328Z,955.6666666666666
2023-05-21T07:33:56.854Z,955
2023-05-21T07:36:57.704Z,954
2023-05-21T07:39:58.062Z,954.3333333333334
2023-05-21T07:42:57.939Z,953.6666666666666
2023-05-21T07:45:57.162Z,954
2023-05-21T07:48:57.875Z,952.3333333333334
2023-05-21T07:51:57.534Z,952.3333333333334
2023-05-21T07:54:57.217Z,955
2023-05-21T07:57:57.636Z,954.6666666666666
2023-05-21T08:00:57.711Z,954
2023-05-21T08:03:57.855Z,953.3333333333334
2023-05-21T08:06:57.709Z,952.6666666666666
2023-05-21T08:09:57.648Z,951.6666666666666
2023-05-21T08:12:56.684Z,949
2023-05-21T08:15:57.476Z,947.6666666666666
2023-05-21T08:18:57.662Z,947.3333333333334
2023-05-21T08:21:57.173Z,944.3333333333334
2023-05-21T08:24:57.558Z,943.3333333333334
2023-05-21T08:27:56.731Z,943.3333333333334
2023-05-21T08:30:57.250Z,941.6666666666666
2023-05-21T08:33:57.795Z,941.6666666666666
2023-05-21T08:36:57.735Z,942.3333333333334
2023-05-21T08:39:56.859Z,940.6666666666666
2023-05-21T08:42:57.319Z,941.6666666666666
2023-05-21T08:45:57.709Z,943.6666666666666
2023-05-21T08:48:57.070Z,943.3333333333334
2023-05-21T08:51:57.416Z,943.3333333333334
2023-05-21T08:54:56.929Z,943.3333333333334
2023-05-21T08:58:02.329Z,943.3333333333334
2023-05-21T09:00:58.028Z,943.3333333333334
2023-05-21T09:04:04.861Z,943
2023-05-21T09:06:57.679Z,942
2023-05-21T09:09:57.860Z,941.3333333333334
2023-05-21T09:12:57.291Z,937.6666666666666
2023-05-21T09:15:58.260Z,939
2023-05-21T09:18:57.648Z,935.3333333333334
2023-05-21T09:21:56.916Z,937.6666666666666
2023-05-21T09:24:57.600Z,935.6666666666666
2023-05-21T09:27:57.175Z,939
2023-05-21T09:30:57.951Z,938.6666666666666
2023-05-21T09:33:57.348Z,938.3333333333334
2023-05-21T09:36:57.702Z,933
2023-05-21T09:39:57.420Z,936.6666666666666
2023-05-21T09:42:58.044Z,939
2023-05-21T09:45:59.698Z,940.6666666666666
2023-05-21T09:48:57.206Z,941
2023-05-21T09:51:57.757Z,944.3333333333334
2023-05-21T09:54:57.545Z,947
2023-05-21T09:57:57.419Z,947.6666666666666
2023-05-21T10:00:57.979Z,947.6666666666666
2023-05-21T10:03:57.373Z,947
2023-05-21T10:06:56.945Z,946.3333333333334
2023-05-21T10:09:57.324Z,946.6666666666666
2023-05-21T10:12:57.114Z,948
2023-05-21T10:15:57.156Z,950.3333333333334
2023-05-21T10:18:56.963Z,951.3333333333334
2023-05-21T10:21:57.834Z,952
2023-05-21T10:24:57.403Z,951.6666666666666
2023-05-21T10:27:57.713Z,952.6666666666666
2023-05-21T10:30:57.361Z,951.3333333333334
2023-05-21T10:33:56.810Z,953.6666666666666
2023-05-21T10:36:57.745Z,956
2023-05-21T10:39:58.353Z,956.3333333333334
2023-05-21T10:42:57.523Z,957.3333333333334
2023-05-21T10:45:56.990Z,958.3333333333334
2023-05-21T10:48:57.828Z,959
2023-05-21T10:51:57.660Z,960
2023-05-21T10:54:57.164Z,959.6666666666666
2023-05-21T10:57:57.479Z,959.6666666666666
2023-05-21T11:00:58.002Z,960
2023-05-21T11:04:16.802Z,959.6666666666666
2023-05-21T11:06:57.696Z,961
2023-05-21T11:09:57.288Z,960.3333333333334
2023-05-21T11:12:57.107Z,960
2023-05-21T11:15:57.224Z,960
2023-05-21T11:18:57.015Z,960
2023-05-21T11:21:57.577Z,960.3333333333334
2023-05-21T11:24:57.467Z,959.6666666666666
2023-05-21T11:27:57.263Z,960
2023-05-21T11:30:57.921Z,960.6666666666666
2023-05-21T11:33:57.674Z,960.6666666666666
2023-05-21T11:36:56.989Z,960.3333333333334
2023-05-21T11:39:57.598Z,960.6666666666666
2023-05-21T11:42:57.177Z,960.3333333333334
2023-05-21T11:45:57.811Z,960.3333333333334
2023-05-21T11:48:57.410Z,960.3333333333334
2023-05-21T11:51:57.023Z,959.6666666666666
2023-05-21T11:54:57.661Z,958.6666666666666
2023-05-21T11:57:57.469Z,959
2023-05-21T12:00:57.574Z,959.6666666666666
2023-05-21T12:03:57.371Z,960
2023-05-21T12:06:56.787Z,960
2023-05-21T12:09:57.367Z,959.6666666666666
2023-05-21T12:12:57.660Z,960.3333333333334
2023-05-21T12:15:57.218Z,960.3333333333334
2023-05-21T12:18:58.106Z,960
2023-05-21T12:21:57.666Z,959.3333333333334
2023-05-21T12:24:57.064Z,959.3333333333334
2023-05-21T12:27:58.326Z,959.6666666666666
2023-05-21T12:30:57.941Z,959.3333333333334
2023-05-21T12:33:57.241Z,959.3333333333334
2023-05-21T12:36:57.443Z,959
2023-05-21T12:39:57.042Z,958.6666666666666
2023-05-21T12:42:57.808Z,958
2023-05-21T12:45:57.167Z,958.3333333333334
2023-05-21T12:48:57.919Z,957.6666666666666
2023-05-21T12:51:57.788Z,957.6666666666666
2023-05-21T12:54:57.771Z,957.6666666666666
2023-05-21T12:57:57.480Z,957.6666666666666
2023-05-21T13:00:57.443Z,957.3333333333334
2023-05-21T13:03:57.709Z,958
2023-05-21T13:06:57.599Z,957.6666666666666
2023-05-21T13:09:57.642Z,957.3333333333334
2023-05-21T13:12:57.365Z,956.3333333333334
2023-05-21T13:15:57.511Z,955.6666666666666
2023-05-21T13:18:57.929Z,956
2023-05-21T13:21:57.346Z,955
2023-05-21T13:24:57.209Z,954.6666666666666
2023-05-21T13:27:57.809Z,954.3333333333334
2023-05-21T13:30:57.929Z,954
2023-05-21T13:33:57.303Z,953.3333333333334
2023-05-21T13:36:57.385Z,952
2023-05-21T13:39:56.933Z,951.3333333333334
2023-05-21T13:42:57.587Z,950.3333333333334
2023-05-21T13:45:58.013Z,949
2023-05-21T13:48:57.855Z,947
2023-05-21T13:51:57.909Z,944.6666666666666
2023-05-21T13:54:57.434Z,943
2023-05-21T13:57:57.714Z,917
2023-05-21T14:00:57.877Z,902
2023-05-21T14:03:57.445Z,881.6666666666666
2023-05-21T14:06:57.252Z,926
2023-05-21T14:09:57.837Z,919
2023-05-21T14:13:04.687Z,902.3333333333334
2023-05-21T14:15:57.651Z,886
2023-05-21T14:18:57.866Z,872.3333333333334
2023-05-21T14:21:57.694Z,853.6666666666666
2023-05-21T14:24:57.717Z,826.6666666666666
2023-05-21T14:27:57.331Z,794.6666666666666
2023-05-21T14:30:57.231Z,747
2023-05-21T14:33:57.899Z,721.3333333333334
2023-05-21T14:36:57.424Z,694
2023-05-21T14:39:57.088Z,661
2023-05-21T14:42:57.705Z,630.3333333333334
2023-05-21T14:45:56.914Z,607.6666666666666
2023-05-21T14:48:57.774Z,596.6666666666666
2023-05-21T14:51:57.481Z,594.6666666666666
2023-05-21T14:54:58.077Z,583.6666666666666
2023-05-21T14:57:57.801Z,574.6666666666666
2023-05-21T15:00:57.690Z,568.6666666666666
2023-05-21T15:03:57.240Z,564.3333333333334
2023-05-21T15:06:57.148Z,563.6666666666666
2023-05-21T15:09:57.670Z,565.3333333333334
2023-05-21T15:12:56.939Z,568.3333333333334
2023-05-21T15:15:56.965Z,571
2023-05-21T15:18:57.173Z,575
2023-05-21T15:21:57.680Z,579.6666666666666
2023-05-21T15:24:57.722Z,585
2023-05-21T15:27:57.749Z,586.3333333333334
2023-05-21T15:30:57.530Z,583.3333333333334
2023-05-21T15:33:58.415Z,585.6666666666666
2023-05-21T15:36:57.190Z,585.6666666666666
2023-05-21T15:39:57.891Z,583.6666666666666
2023-05-21T15:42:57.800Z,583
2023-05-21T15:45:57.197Z,589.3333333333334
2023-05-21T15:48:57.483Z,591
2023-05-21T15:51:57.431Z,593.6666666666666
2023-05-21T15:54:57.463Z,600.3333333333334
2023-05-21T15:57:59.117Z,593.6666666666666
2023-05-21T16:00:57.868Z,603.6666666666666
2023-05-21T16:03:57.664Z,609.3333333333334
2023-05-21T16:06:57.184Z,608.6666666666666
2023-05-21T16:09:56.860Z,609
2023-05-21T16:12:57.731Z,598
2023-05-21T16:15:57.163Z,612
2023-05-21T16:18:57.038Z,613.6666666666666
2023-05-21T16:21:57.390Z,611
2023-05-21T16:24:57.865Z,615
2023-05-21T16:27:57.866Z,616
2023-05-21T16:30:57.007Z,611
2023-05-21T16:33:57.750Z,611.6666666666666
2023-05-21T16:36:57.415Z,609.6666666666666
2023-05-21T16:39:57.035Z,608
2023-05-21T16:42:58.029Z,612
2023-05-21T16:45:57.602Z,612.3333333333334
2023-05-21T16:48:56.864Z,610.6666666666666
2023-05-21T16:51:57.468Z,606.3333333333334
2023-05-21T16:54:57.655Z,596
2023-05-21T16:57:57.530Z,586
2023-05-21T17:00:57.555Z,570
2023-05-21T17:03:57.719Z,567
2023-05-21T17:06:58.234Z,553.3333333333334
2023-05-21T17:09:57.725Z,546.6666666666666
2023-05-21T17:12:59.840Z,537
2023-05-21T17:15:57.063Z,529
2023-05-21T17:18:57.235Z,523
2023-05-21T17:21:57.691Z,522.3333333333334
2023-05-21T17:24:57.219Z,521.3333333333334
2023-05-21T17:27:57.121Z,518
2023-05-21T17:30:57.083Z,513.6666666666666
2023-05-21T17:33:58.013Z,515.6666666666666
2023-05-21T17:36:57.529Z,512.3333333333334
2023-05-21T17:39:57.615Z,505.6666666666667
2023-05-21T17:42:57.025Z,499
2023-05-21T17:45:57.504Z,488.3333333333333
2023-05-21T17:48:57.583Z,473.3333333333333
2023-05-21T17:51:57.380Z,455.3333333333333
2023-05-21T17:54:57.106Z,435.6666666666667
2023-05-21T17:57:57.689Z,421.3333333333333
2023-05-21T18:00:58.189Z,406.6666666666667
2023-05-21T18:03:57.636Z,385
2023-05-21T18:06:57.543Z,362.6666666666667
2023-05-21T18:09:57.793Z,341.6666666666667
2023-05-21T18:12:57.481Z,314.6666666666667
2023-05-21T18:15:57.080Z,285.6666666666667
2023-05-21T18:18:56.997Z,260.3333333333333
2023-05-21T18:21:57.260Z,237
2023-05-21T18:24:57.444Z,213.66666666666666
2023-05-21T18:27:57.240Z,193
2023-05-21T18:30:57.791Z,173.66666666666666
2023-05-21T18:33:57.218Z,154.33333333333334
2023-05-21T18:36:57.738Z,135
2023-05-21T18:39:57.518Z,115.33333333333333
2023-05-21T18:42:56.691Z,95.66666666666667
2023-05-21T18:45:57.838Z,74.33333333333333
2023-05-21T18:48:57.928Z,56.333333333333336
2023-05-21T18:51:57.425Z,43
2023-05-21T18:54:56.984Z,28.333333333333332
2023-05-21T18:57:57.652Z,19
2023-05-21T19:01:26.016Z,12.333333333333334
2023-05-21T19:03:56.990Z,10.333333333333334
2023-05-21T19:06:57.537Z,8
2023-05-21T19:09:57.606Z,6
2023-05-21T19:12:57.397Z,4.333333333333333
2023-05-21T19:15:58.030Z,4
2023-05-21T19:18:57.469Z,2
2023-05-21T19:21:57.499Z,1.6666666666666667
2023-05-21T19:24:57.515Z,0.3333333333333333
2023-05-21T19:27:57.448Z,0
2023-05-21T19:30:58.367Z,1.3333333333333333
2023-05-21T19:33:57.288Z,0.6666666666666666
2023-05-21T19:36:57.016Z,1
2023-05-21T19:39:57.662Z,0
2023-05-21T19:42:57.540Z,0
2023-05-21T19:45:57.224Z,0.3333333333333333
2023-05-21T19:48:57.742Z,2.6666666666666665
2023-05-21T19:51:57.938Z,1
2023-05-21T19:54:57.101Z,0.6666666666666666
2023-05-21T19:57:57.842Z,1.3333333333333333
2023-05-21T20:00:57.481Z,3
2023-05-21T20:03:57.175Z,0
2023-05-21T20:06:57.943Z,0.6666666666666666
2023-05-21T20:09:58.144Z,0
2023-05-21T20:12:57.542Z,0
2023-05-21T20:15:57.338Z,0
2023-05-21T20:18:56.954Z,0
2023-05-21T20:21:57.513Z,0
2023-05-21T20:24:57.983Z,0
2023-05-21T20:27:57.654Z,0.3333333333333333
2023-05-21T20:30:57.333Z,0.3333333333333333
2023-05-21T20:33:57.552Z,0
2023-05-21T20:36:57.482Z,0
2023-05-21T20:39:57.988Z,4.666666666666667
2023-05-21T20:42:57.373Z,0
2023-05-21T20:45:57.778Z,0
2023-05-21T20:48:57.425Z,0
2023-05-21T20:51:57.364Z,0
2023-05-21T20:54:56.800Z,0
2023-05-21T20:57:58.073Z,0
2023-05-21T21:00:58.303Z,0
2023-05-21T21:03:58.257Z,0
2023-05-21T21:06:57.303Z,0
2023-05-21T21:09:58.020Z,0.6666666666666666
2023-05-21T21:12:57.703Z,0
2023-05-21T21:15:57.644Z,0
2023-05-21T21:18:57.706Z,0
2023-05-21T21:21:57.274Z,0
2023-05-21T21:24:57.096Z,0.3333333333333333
2023-05-21T21:27:56.818Z,0
2023-05-21T21:30:57.477Z,0
2023-05-21T21:33:57.215Z,1
2023-05-21T21:36:57.684Z,0
2023-05-21T21:39:57.699Z,0
2023-05-21T21:42:57.569Z,0.3333333333333333
2023-05-21T21:45:57.280Z,0
2023-05-21T21:48:57.725Z,0.3333333333333333
2023-05-21T21:51:57.696Z,0
2023-05-21T21:54:57.442Z,0
2023-05-21T21:57:57.909Z,0
2023-05-21T22:00:57.776Z,0.3333333333333333
2023-05-21T22:03:57.295Z,0
2023-05-21T22:06:56.812Z,0
2023-05-21T22:09:57.262Z,0
2023-05-21T22:12:57.636Z,0
2023-05-21T22:15:57.112Z,0.3333333333333333
2023-05-21T22:18:56.810Z,0
2023-05-21T22:21:57.333Z,0
2023-05-21T22:24:57.274Z,0
2023-05-21T22:27:56.968Z,0
2023-05-21T22:30:57.719Z,0.3333333333333333
2023-05-21T22:33:56.879Z,0.3333333333333333
2023-05-21T22:36:57.142Z,0
2023-05-21T22:39:57.850Z,0
2023-05-21T22:42:57.527Z,0
2023-05-21T22:45:57.860Z,0
2023-05-21T22:48:56.619Z,0
2023-05-21T22:51:57.019Z,0
2023-05-21T22:54:57.692Z,0
2023-05-21T22:57:57.654Z,0
2023-05-21T23:00:57.872Z,0
2023-05-21T23:03:57.738Z,0
2023-05-21T23:06:57.329Z,0
2023-05-21T23:09:57.296Z,0
2023-05-21T23:12:56.878Z,0
2023-05-21T23:15:57.513Z,0.3333333333333333
2023-05-21T23:18:57.279Z,0
2023-05-21T23:21:57.268Z,0.6666666666666666
2023-05-21T23:24:57.573Z,0
2023-05-21T23:27:56.878Z,0
2023-05-21T23:31:14.805Z,0
2023-05-21T23:33:57.617Z,0.6666666666666666
2023-05-21T23:37:00.205Z,0
2023-05-21T23:39:57.092Z,0
2023-05-21T23:42:57.508Z,0
2023-05-21T23:45:57.454Z,0
2023-05-21T23:48:57.361Z,0
2023-05-21T23:51:57.596Z,0
2023-05-21T23:54:56.846Z,0
2023-05-21T23:57:57.099Z,0
